createdAt,value
2019-02-24T00:03:19.298Z,9.55
2019-02-24T00:08:12.751Z,8.97
2019-02-24T00:13:06.136Z,9.17
2019-02-24T00:18:00.217Z,9.23
2019-02-24T00:22:53.594Z,8.07
2019-02-24T00:27:46.996Z,8.40
2019-02-24T00:32:40.372Z,8.80
2019-02-24T00:37:33.739Z,8.87
2019-02-24T00:42:27.123Z,8.87
2019-02-24T00:47:20.504Z,8.50
2019-02-24T00:52:13.898Z,9.30
2019-02-24T00:57:07.264Z,9.37
2019-02-24T01:02:00.697Z,9.50
2019-02-24T01:06:54.374Z,9.27
2019-02-24T01:11:47.761Z,9.60
2019-02-24T01:16:41.459Z,9.37
2019-02-24T01:21:34.846Z,9.60
2019-02-24T01:26:28.242Z,6.70
2019-02-24T01:31:21.593Z,6.20
2019-02-24T01:36:15.250Z,4.97
2019-02-24T01:41:08.631Z,4.93
2019-02-24T01:46:02.320Z,5.30
2019-02-24T01:50:55.691Z,4.50
2019-02-24T01:55:49.095Z,4.90
2019-02-24T02:00:42.774Z,4.43
2019-02-24T02:05:36.438Z,4.23
2019-02-24T02:10:29.803Z,3.53
2019-02-24T02:15:23.214Z,2.90
2019-02-24T02:20:16.979Z,3.87
2019-02-24T02:25:10.596Z,3.27
2019-02-24T02:30:04.074Z,3.77
2019-02-24T02:34:57.640Z,3.70
2019-02-24T02:39:51.032Z,3.70
2019-02-24T02:44:44.716Z,3.60
2019-02-24T02:49:38.071Z,3.40
2019-02-24T02:54:31.494Z,3.43
2019-02-24T02:59:24.856Z,3.50
2019-02-24T03:04:18.233Z,3.47
2019-02-24T03:09:12.055Z,4.07
2019-02-24T03:14:05.444Z,3.87
2019-02-24T03:18:58.844Z,3.40
2019-02-24T03:23:52.215Z,3.80
2019-02-24T03:28:45.747Z,3.63
2019-02-24T03:33:39.127Z,3.40
2019-02-24T03:38:32.476Z,3.40
2019-02-24T03:43:25.871Z,3.57
2019-02-24T03:48:19.563Z,3.40
2019-02-24T03:53:12.943Z,4.10
2019-02-24T03:58:06.304Z,3.80
2019-02-24T04:02:59.665Z,3.50
2019-02-24T04:07:53.148Z,3.50
2019-02-24T04:12:46.489Z,3.73
2019-02-24T04:17:40.617Z,3.57
2019-02-24T04:22:34.115Z,3.93
2019-02-24T04:27:27.476Z,3.50
2019-02-24T04:32:20.841Z,4.00
2019-02-24T04:37:14.283Z,4.03
2019-02-24T04:42:07.641Z,3.63
2019-02-24T04:47:01.382Z,3.43
2019-02-24T04:51:54.763Z,4.30
2019-02-24T04:56:48.412Z,3.83
2019-02-24T05:01:41.807Z,3.80
2019-02-24T05:06:35.482Z,3.37
2019-02-24T05:11:28.937Z,3.77
2019-02-24T05:16:22.595Z,3.90
2019-02-24T05:21:16.239Z,3.87
2019-02-24T05:26:10.211Z,4.17
2019-02-24T05:31:03.608Z,3.80
2019-02-24T05:35:57.290Z,3.23
2019-02-24T05:40:50.693Z,3.63
2019-02-24T05:45:44.049Z,3.83
2019-02-24T05:50:37.415Z,4.07
2019-02-24T05:55:30.790Z,3.33
2019-02-24T06:00:24.183Z,3.43
2019-02-24T06:05:17.564Z,3.47
2019-02-24T06:10:11.244Z,3.87
2019-02-24T06:15:04.644Z,3.50
2019-02-24T06:19:58.001Z,3.80
2019-02-24T06:24:51.387Z,3.47
2019-02-24T06:29:45.081Z,3.83
2019-02-24T06:34:38.763Z,3.97
2019-02-24T06:39:32.449Z,3.77
2019-02-24T06:44:25.819Z,3.53
2019-02-24T06:49:19.200Z,3.13
2019-02-24T06:54:12.570Z,3.63
2019-02-24T06:59:05.979Z,3.90
2019-02-24T07:03:59.658Z,3.60
2019-02-24T07:08:53.021Z,3.37
2019-02-24T07:13:46.408Z,4.00
2019-02-24T07:18:39.774Z,3.67
2019-02-24T07:23:33.175Z,3.77
2019-02-24T07:28:26.846Z,3.63
2019-02-24T07:33:20.216Z,3.43
2019-02-24T07:38:13.631Z,3.90
2019-02-24T07:43:07.072Z,3.83
2019-02-24T07:48:00.760Z,3.43
2019-02-24T07:52:54.114Z,3.50
2019-02-24T07:57:47.478Z,3.80
2019-02-24T08:02:40.883Z,3.40
2019-02-24T08:07:34.254Z,4.20
2019-02-24T08:12:27.691Z,3.40
2019-02-24T08:17:21.267Z,3.47
2019-02-24T08:22:14.634Z,3.70
2019-02-24T08:27:08.324Z,3.80
2019-02-24T08:32:01.683Z,3.60
2019-02-24T08:36:55.102Z,3.57
2019-02-24T08:41:48.519Z,3.93
2019-02-24T08:46:42.162Z,3.70
2019-02-24T08:51:35.508Z,3.63
2019-02-24T08:56:28.897Z,4.90
2019-02-24T09:01:22.278Z,7.90
2019-02-24T09:06:15.682Z,9.43
2019-02-24T09:11:09.046Z,9.60
2019-02-24T09:16:03.385Z,10.90
2019-02-24T09:20:56.773Z,9.87
2019-02-24T09:25:50.439Z,11.57
2019-02-24T09:30:43.866Z,10.97
2019-02-24T09:35:37.490Z,12.43
2019-02-24T09:40:30.946Z,12.30
2019-02-24T09:45:24.354Z,14.23
2019-02-24T09:50:17.924Z,10.23
2019-02-24T09:55:11.300Z,8.03
2019-02-24T10:00:04.971Z,7.03
2019-02-24T10:04:58.390Z,6.67
2019-02-24T10:09:52.071Z,5.53
2019-02-24T10:14:45.796Z,5.20
2019-02-24T10:19:39.250Z,4.10
2019-02-24T10:24:33.163Z,4.00
2019-02-24T10:29:29.330Z,3.90
2019-02-24T10:34:23.073Z,3.30
2019-02-24T10:39:16.645Z,3.07
2019-02-24T10:44:10.033Z,2.70
2019-02-24T10:49:03.823Z,2.07
2019-02-24T10:53:57.376Z,2.30
2019-02-24T10:58:50.799Z,2.13
2019-02-24T11:03:44.222Z,2.17
2019-02-24T11:08:37.599Z,2.40
2019-02-24T11:13:30.983Z,2.20
2019-02-24T11:18:24.583Z,1.73
2019-02-24T11:23:17.959Z,2.40
2019-02-24T11:28:11.348Z,2.00
2019-02-24T11:33:04.732Z,2.00
2019-02-24T11:37:58.403Z,2.07
2019-02-24T11:42:51.801Z,1.60
2019-02-24T11:47:45.162Z,1.80
2019-02-24T11:52:38.673Z,2.30
2019-02-24T11:57:32.240Z,1.80
2019-02-24T12:02:33.977Z,2.07
2019-02-24T12:07:19.400Z,2.10
2019-02-24T12:12:12.997Z,1.77
2019-02-24T12:17:06.693Z,2.47
2019-02-24T12:22:00.153Z,5.93
2019-02-24T12:26:53.876Z,3.87
2019-02-24T12:31:56.204Z,3.50
2019-02-24T12:36:41.106Z,2.90
2019-02-24T12:41:34.467Z,2.60
2019-02-24T12:46:27.873Z,2.73
2019-02-24T12:51:21.249Z,2.60
2019-02-24T12:56:15.014Z,2.53
2019-02-24T13:01:08.032Z,2.67
2019-02-24T13:06:01.466Z,2.50
2019-02-24T13:10:54.841Z,2.53
2019-02-24T13:15:48.441Z,2.90
2019-02-24T13:20:42.124Z,2.90
2019-02-24T13:25:35.833Z,2.90
2019-02-24T13:30:29.234Z,2.73
2019-02-24T13:35:22.875Z,2.90
2019-02-24T13:40:16.270Z,2.73
2019-02-24T13:45:11.104Z,2.93
2019-02-24T13:50:04.591Z,3.03
2019-02-24T13:54:58.247Z,2.90
2019-02-24T13:59:51.650Z,3.30
2019-02-24T14:04:45.296Z,3.20
2019-02-24T14:09:38.695Z,3.17
2019-02-24T14:14:32.376Z,2.83
2019-02-24T14:19:26.055Z,2.70
2019-02-24T14:24:20.095Z,3.23
2019-02-24T14:29:13.119Z,3.50
2019-02-24T14:34:06.514Z,3.00
2019-02-24T14:39:00.187Z,2.77
2019-02-24T14:43:53.886Z,3.33
2019-02-24T14:48:47.284Z,2.60
2019-02-24T14:53:40.987Z,2.83
2019-02-24T14:58:34.356Z,2.80
2019-02-24T15:03:27.733Z,2.77
2019-02-24T15:08:21.364Z,2.80
2019-02-24T15:13:14.770Z,2.50
2019-02-24T15:18:08.464Z,2.70
2019-02-24T15:23:01.845Z,2.70
2019-02-24T15:27:55.586Z,2.80
2019-02-24T15:32:51.548Z,2.50
2019-02-24T15:37:42.575Z,2.87
2019-02-24T15:42:35.969Z,2.40
2019-02-24T15:47:29.655Z,2.63
2019-02-24T15:52:23.074Z,2.23
2019-02-24T15:57:16.732Z,2.77
2019-02-24T16:02:10.399Z,2.40
2019-02-24T16:07:04.116Z,2.80
2019-02-24T16:11:57.775Z,2.50
2019-02-24T16:16:51.461Z,2.77
2019-02-24T16:21:44.811Z,2.50
2019-02-24T16:26:38.310Z,3.20
2019-02-24T16:31:31.773Z,3.53
2019-02-24T16:36:25.282Z,3.03
2019-02-24T16:41:18.861Z,3.27
2019-02-24T16:46:12.412Z,3.47
2019-02-24T16:51:05.877Z,3.13
2019-02-24T16:55:59.453Z,3.53
2019-02-24T17:00:53.102Z,3.60
2019-02-24T17:05:46.483Z,3.37
2019-02-24T17:10:39.885Z,3.73
2019-02-24T17:15:33.616Z,3.80
2019-02-24T17:20:26.983Z,3.60
2019-02-24T17:25:20.633Z,3.20
2019-02-24T17:30:13.999Z,3.20
2019-02-24T17:35:07.682Z,4.00
2019-02-24T17:40:01.411Z,3.53
2019-02-24T17:44:54.796Z,3.40
2019-02-24T17:49:48.171Z,3.43
2019-02-24T17:54:41.845Z,3.20
2019-02-24T17:59:40.488Z,3.47
2019-02-24T18:04:28.925Z,3.70
2019-02-24T18:09:22.575Z,3.77
2019-02-24T18:14:16.235Z,3.87
2019-02-24T18:19:09.629Z,3.40
2019-02-24T18:24:03.604Z,3.63
2019-02-24T18:28:56.993Z,3.70
2019-02-24T18:33:50.744Z,4.03
2019-02-24T18:38:44.113Z,3.43
2019-02-24T18:43:37.521Z,4.10
2019-02-24T18:48:30.915Z,3.70
2019-02-24T18:53:24.535Z,3.57
2019-02-24T18:58:18.192Z,3.53
2019-02-24T19:03:11.604Z,4.10
2019-02-24T19:08:04.974Z,3.93
2019-02-24T19:12:58.340Z,4.00
2019-02-24T19:17:51.704Z,4.40
2019-02-24T19:22:45.419Z,4.63
2019-02-24T19:27:38.814Z,4.03
2019-02-24T19:32:32.339Z,4.40
2019-02-24T19:37:25.830Z,5.10
2019-02-24T19:42:19.260Z,5.10
2019-02-24T19:47:12.621Z,5.50
2019-02-24T19:52:06.003Z,4.83
2019-02-24T19:56:59.691Z,5.23
2019-02-24T20:01:53.053Z,5.27
2019-02-24T20:06:46.716Z,5.20
2019-02-24T20:11:40.096Z,5.47
2019-02-24T20:16:33.496Z,4.63
2019-02-24T20:21:26.874Z,5.40
2019-02-24T20:26:20.550Z,4.87
2019-02-24T20:31:14.253Z,5.50
2019-02-24T20:36:07.940Z,4.87
2019-02-24T20:41:01.331Z,4.60
2019-02-24T20:45:54.988Z,4.30
2019-02-24T20:50:48.870Z,4.70
2019-02-24T20:55:42.390Z,4.90
2019-02-24T21:00:37.134Z,4.63
2019-02-24T21:05:30.788Z,4.47
2019-02-24T21:10:24.793Z,4.80
2019-02-24T21:15:18.279Z,4.70
2019-02-24T21:20:13.199Z,4.60
2019-02-24T21:25:06.777Z,6.03
2019-02-24T21:30:00.185Z,6.23
2019-02-24T21:34:53.773Z,5.80
2019-02-24T21:39:47.148Z,6.20
2019-02-24T21:44:40.538Z,4.20
2019-02-24T21:49:34.143Z,3.10
2019-02-24T21:54:27.816Z,2.53
2019-02-24T21:59:21.206Z,3.33
2019-02-24T22:04:14.601Z,2.50
2019-02-24T22:09:08.493Z,2.97
2019-02-24T22:14:01.991Z,3.07
2019-02-24T22:18:55.671Z,3.20
2019-02-24T22:23:49.338Z,3.27
2019-02-24T22:28:43.006Z,3.30
2019-02-24T22:33:36.409Z,3.30
2019-02-24T22:38:29.784Z,3.20
2019-02-24T22:43:23.271Z,3.47
2019-02-24T22:48:16.916Z,3.70
2019-02-24T22:53:10.288Z,8.83
2019-02-24T22:58:03.935Z,4.07
2019-02-24T23:02:57.343Z,3.73
2019-02-24T23:07:50.992Z,3.30
2019-02-24T23:12:44.385Z,2.40
2019-02-24T23:17:38.041Z,2.57
2019-02-24T23:22:31.452Z,2.10
2019-02-24T23:27:24.840Z,3.00
2019-02-24T23:32:18.245Z,3.67
2019-02-24T23:37:11.626Z,3.13
2019-02-24T23:42:05.243Z,3.40
2019-02-24T23:46:58.662Z,3.30
2019-02-24T23:51:52.041Z,3.00
2019-02-24T23:56:45.683Z,3.07
